Time;durP1;ratioP1;P1;durP2;ratioP2;P2;SDS_P1;SDS_P2;PMS_P1;PMS_P2;Temp;Humidity;BMP_temperature;BMP_pressure;BME280_temperature;BME280_humidity;BME280_pressure;Samples;Min_cycle;Max_cycle;Signal;HPM_P1;HPM_P2
2023/02/27 00:01:29;;;;;;;19.38;12.10;;;21.00;99.90;;;;;;5033394;28;20049;-50
2023/02/27 00:03:55;;;;;;;16.70;12.05;;;21.00;99.90;;;;;;5019515;28;20068;-50
2023/02/27 00:06:20;;;;;;;19.70;12.32;;;21.00;99.90;;;;;;5032964;28;20021;-50
2023/02/27 00:08:46;;;;;;;20.55;13.32;;;21.00;99.90;;;;;;5032914;28;20037;-50
2023/02/27 00:11:12;;;;;;;20.30;13.18;;;21.00;99.90;;;;;;5026345;28;20552;-50
2023/02/27 00:13:38;;;;;;;20.90;13.60;;;21.00;99.90;;;;;;5013184;28;20048;-51
2023/02/27 00:16:05;;;;;;;20.02;13.48;;;21.00;99.90;;;;;;5027466;28;20101;-51
2023/02/27 00:18:30;;;;;;;18.88;12.43;;;20.90;99.90;;;;;;5013615;28;20492;-51
2023/02/27 00:20:56;;;;;;;19.83;12.98;;;20.90;99.90;;;;;;5025290;28;20106;-50
2023/02/27 00:23:22;;;;;;;22.23;14.00;;;20.90;99.90;;;;;;5013210;28;20487;-50
2023/02/27 00:25:48;;;;;;;21.52;14.07;;;20.90;99.90;;;;;;5012732;28;20495;-51
2023/02/27 00:28:15;;;;;;;20.40;13.95;;;20.90;99.90;;;;;;5007371;28;20049;-50
2023/02/27 00:30:40;;;;;;;24.00;12.95;;;20.90;99.90;;;;;;5019184;28;20009;-50
2023/02/27 00:33:07;;;;;;;22.20;14.32;;;20.90;99.90;;;;;;5032470;28;20022;-50
2023/02/27 00:35:32;;;;;;;22.83;14.27;;;20.90;99.90;;;;;;5031087;28;20021;-50
2023/02/27 00:37:58;;;;;;;21.63;14.23;;;20.80;99.90;;;;;;5031204;28;20506;-51
2023/02/27 00:40:25;;;;;;;20.35;13.55;;;20.80;99.90;;;;;;5018666;28;20113;-50
2023/02/27 00:42:51;;;;;;;22.58;14.38;;;20.80;99.90;;;;;;5024679;28;20030;-50
2023/02/27 00:45:19;;;;;;;19.95;13.75;;;20.80;99.90;;;;;;5025456;28;20479;-50
2023/02/27 00:47:45;;;;;;;22.45;14.18;;;20.80;99.90;;;;;;5012624;28;20061;-50
2023/02/27 00:50:11;;;;;;;21.48;13.63;;;20.80;99.90;;;;;;5008113;28;20080;-50
2023/02/27 00:52:38;;;;;;;20.13;13.25;;;20.80;99.90;;;;;;5025666;28;20029;-51
2023/02/27 00:55:04;;;;;;;21.77;14.70;;;20.80;99.90;;;;;;5012522;28;20017;-50
2023/02/27 00:57:30;;;;;;;24.17;15.15;;;20.70;99.90;;;;;;5030680;28;20135;-50
2023/02/27 00:59:56;;;;;;;23.52;14.80;;;20.80;99.90;;;;;;5002955;28;20120;-50
2023/02/27 01:02:21;;;;;;;25.17;17.40;;;20.70;99.90;;;;;;5030881;28;20028;-50
2023/02/27 01:04:47;;;;;;;24.30;15.75;;;20.70;99.90;;;;;;5014165;28;20158;-49
2023/02/27 01:07:13;;;;;;;26.30;16.05;;;20.70;99.90;;;;;;4997553;28;20120;-49
2023/02/27 01:09:39;;;;;;;26.13;17.38;;;20.70;99.90;;;;;;5022296;28;20476;-50
2023/02/27 01:12:05;;;;;;;27.83;17.63;;;20.70;99.90;;;;;;5012199;28;20021;-50
2023/02/27 01:14:30;;;;;;;21.33;14.20;;;20.70;99.90;;;;;;5020783;28;20021;-50
2023/02/27 01:16:57;;;;;;;29.13;17.40;;;20.70;99.90;;;;;;5017104;28;20018;-50
2023/02/27 01:19:24;;;;;;;22.95;15.48;;;20.70;99.90;;;;;;4986126;28;20487;-50
2023/02/27 01:21:49;;;;;;;26.40;17.02;;;20.60;99.90;;;;;;5031647;28;20045;-52
2023/02/27 01:24:15;;;;;;;25.73;16.13;;;20.60;99.90;;;;;;5007483;28;20069;-51
2023/02/27 01:26:41;;;;;;;26.90;16.08;;;20.60;99.90;;;;;;5012040;28;20041;-50
2023/02/27 01:29:07;;;;;;;25.40;16.40;;;20.60;99.90;;;;;;5011956;28;20415;-52
2023/02/27 01:31:33;;;;;;;24.42;17.00;;;20.60;99.90;;;;;;5012091;28;20108;-51
2023/02/27 01:33:59;;;;;;;26.77;16.90;;;20.60;99.90;;;;;;5030090;28;20379;-50
2023/02/27 01:36:26;;;;;;;28.90;16.60;;;20.60;99.90;;;;;;5021312;28;20034;-50
2023/02/27 01:38:52;;;;;;;26.02;17.08;;;20.60;99.90;;;;;;5024939;28;20132;-49
2023/02/27 01:41:18;;;;;;;23.85;16.98;;;20.60;99.90;;;;;;5022385;28;20092;-49
2023/02/27 01:44:05;;;;;;;26.02;16.67;;;20.60;99.90;;;;;;5013595;28;20029;-50
2023/02/27 01:46:32;;;;;;;28.10;17.55;;;20.50;99.90;;;;;;5019781;28;20022;-50
2023/02/27 01:49:19;;;;;;;23.97;15.30;;;20.50;99.90;;;;;;5011896;28;20026;-49
2023/02/27 01:51:52;;;;;;;24.98;17.00;;;20.50;99.90;;;;;;5007313;28;20109;-50
2023/02/27 01:54:21;;;;;;;25.52;17.15;;;20.50;99.90;;;;;;5005008;28;20021;-50
2023/02/27 01:56:47;;;;;;;28.67;18.35;;;20.50;99.90;;;;;;5035438;28;20029;-50
2023/02/27 01:59:14;;;;;;;25.08;16.30;;;20.50;99.90;;;;;;5045731;23;20053;-47
2023/02/27 02:01:40;;;;;;;26.35;17.35;;;20.50;99.90;;;;;;5034150;28;20087;-50
2023/02/27 02:04:27;;;;;;;28.30;18.60;;;20.50;99.90;;;;;;5022087;28;20053;-50
2023/02/27 02:07:08;;;;;;;28.83;18.27;;;20.50;99.90;;;;;;5035165;28;20037;-52
2023/02/27 02:09:38;;;;;;;31.10;19.08;;;20.50;99.90;;;;;;5035107;28;20024;-53
2023/02/27 02:12:05;;;;;;;29.02;18.52;;;20.50;99.90;;;;;;5035074;28;20025;-53
2023/02/27 02:14:31;;;;;;;30.30;18.30;;;20.40;99.90;;;;;;5035242;28;20026;-54
2023/02/27 02:17:32;;;;;;;29.48;18.90;;;20.40;99.90;;;;;;5034007;28;20132;-52
2023/02/27 02:20:24;;;;;;;25.75;18.10;;;20.40;99.90;;;;;;4993180;28;20038;-52
2023/02/27 02:22:56;;;;;;;25.83;16.20;;;20.40;99.90;;;;;;5005417;28;20037;-52
2023/02/27 02:26:01;;;;;;;29.33;19.20;;;20.40;99.90;;;;;;5017092;28;20017;-52
2023/02/27 02:28:59;;;;;;;27.55;18.05;;;20.40;99.90;;;;;;5021108;28;20068;-52
2023/02/27 02:31:43;;;;;;;29.65;19.13;;;20.40;99.90;;;;;;4980912;28;20100;-52
2023/02/27 02:34:30;;;;;;;30.63;18.77;;;20.30;99.90;;;;;;5034667;28;20030;-52
2023/02/27 02:37:32;;;;;;;29.83;19.95;;;20.30;99.90;;;;;;5035112;28;20029;-51
2023/02/27 02:40:07;;;;;;;30.70;20.25;;;20.30;99.90;;;;;;5022701;28;20026;-51
2023/02/27 02:42:38;;;;;;;31.55;19.55;;;20.30;99.90;;;;;;5014931;28;20480;-54
2023/02/27 02:45:16;;;;;;;30.58;20.40;;;20.30;99.90;;;;;;5026791;28;20022;-53
2023/02/27 02:48:09;;;;;;;26.63;18.00;;;20.30;99.90;;;;;;5014951;28;20116;-54
2023/02/27 02:50:49;;;;;;;30.67;19.88;;;20.30;99.90;;;;;;5030200;28;20026;-53
2023/02/27 02:53:31;;;;;;;30.83;19.75;;;20.30;99.90;;;;;;5034482;28;20029;-52
2023/02/27 02:56:10;;;;;;;32.30;21.33;;;20.30;99.90;;;;;;5034649;28;20415;-53
2023/02/27 02:58:50;;;;;;;32.80;20.05;;;20.30;99.90;;;;;;5020547;28;20076;-53
2023/02/27 03:01:25;;;;;;;32.58;20.50;;;20.20;99.90;;;;;;5021339;28;20068;-54
2023/02/27 03:04:08;;;;;;;32.80;20.80;;;20.20;99.90;;;;;;5033540;28;20522;-53
2023/02/27 03:06:44;;;;;;;37.33;22.35;;;20.20;99.90;;;;;;5023973;28;20036;-53
2023/02/27 03:09:55;;;;;;;32.35;20.60;;;20.20;99.90;;;;;;5030689;28;20387;-54
2023/02/27 03:12:23;;;;;;;29.85;19.45;;;20.20;99.90;;;;;;5033951;28;20021;-53
2023/02/27 03:15:08;;;;;;;31.75;20.15;;;20.20;99.90;;;;;;5026140;28;20022;-54
2023/02/27 03:17:48;;;;;;;29.77;19.55;;;20.20;99.90;;;;;;5031525;28;20021;-54
2023/02/27 03:20:28;;;;;;;29.45;19.15;;;20.20;99.90;;;;;;5033860;28;20539;-52
2023/02/27 03:22:58;;;;;;;30.40;18.20;;;20.20;99.90;;;;;;5033903;28;20467;-54
2023/02/27 03:25:27;;;;;;;29.67;18.25;;;20.20;99.90;;;;;;5000348;28;20494;-53
2023/02/27 03:27:57;;;;;;;28.95;19.38;;;20.20;99.90;;;;;;5023526;28;20098;-53
2023/02/27 03:30:42;;;;;;;27.30;17.63;;;20.20;99.90;;;;;;5018400;28;20030;-53
2023/02/27 03:33:20;;;;;;;30.38;18.90;;;20.10;99.90;;;;;;5013844;28;20053;-54
2023/02/27 03:35:50;;;;;;;28.27;18.42;;;20.10;99.90;;;;;;5000848;28;20024;-53
2023/02/27 03:38:15;;;;;;;27.55;18.13;;;20.20;99.90;;;;;;5033153;28;20391;-54
2023/02/27 03:40:51;;;;;;;26.60;17.77;;;20.10;99.90;;;;;;5014600;28;20022;-54
2023/02/27 03:43:31;;;;;;;25.17;15.77;;;20.10;99.90;;;;;;5013713;28;20030;-53
2023/02/27 03:46:17;;;;;;;24.77;15.50;;;20.10;99.90;;;;;;5033076;28;20032;-53
2023/02/27 03:48:45;;;;;;;25.77;16.52;;;20.10;99.90;;;;;;5033306;28;20033;-53
2023/02/27 03:51:18;;;;;;;26.05;16.48;;;20.10;99.90;;;;;;5025603;28;20076;-53
2023/02/27 03:53:49;;;;;;;28.45;17.73;;;20.10;99.90;;;;;;5029039;28;20017;-53
2023/02/27 03:56:21;;;;;;;27.13;16.33;;;20.10;99.90;;;;;;5025569;28;20361;-53
2023/02/27 03:58:47;;;;;;;24.25;15.50;;;20.10;99.90;;;;;;5015497;28;20083;-52
2023/02/27 04:01:13;;;;;;;24.92;15.40;;;20.00;99.90;;;;;;5033497;28;20124;-52
2023/02/27 04:03:46;;;;;;;25.90;15.88;;;20.00;99.90;;;;;;5033090;28;20040;-53
2023/02/27 04:09:16;;;;;;;21.50;15.55;;;20.00;99.90;;;;;;5032836;28;20041;-52
2023/02/27 04:11:50;;;;;;;23.85;15.68;;;20.00;99.90;;;;;;5033065;28;20022;-53
2023/02/27 04:15:00;;;;;;;22.85;14.48;;;20.00;99.90;;;;;;5028141;28;20471;-53
2023/02/27 04:17:33;;;;;;;22.65;14.38;;;20.00;99.90;;;;;;4992889;28;20034;-52
2023/02/27 04:19:59;;;;;;;22.13;13.77;;;20.00;99.90;;;;;;5013148;28;20022;-53
2023/02/27 04:22:38;;;;;;;24.02;15.20;;;20.00;99.90;;;;;;5026208;28;20102;-54
2023/02/27 04:25:23;;;;;;;23.38;14.20;;;20.00;99.90;;;;;;5013407;28;20025;-53
2023/02/27 04:27:56;;;;;;;22.83;14.75;;;20.00;99.90;;;;;;5012959;28;20480;-53
2023/02/27 04:30:22;;;;;;;20.83;13.25;;;20.00;99.90;;;;;;5026863;28;20060;-53
2023/02/27 04:33:23;;;;;;;22.42;14.05;;;19.90;99.90;;;;;;5025230;28;20061;-53
2023/02/27 04:36:04;;;;;;;21.02;13.60;;;20.00;99.90;;;;;;4989755;28;20026;-53
2023/02/27 04:39:02;;;;;;;24.40;14.02;;;19.90;99.90;;;;;;5032597;28;20024;-53
2023/02/27 04:41:56;;;;;;;20.83;12.38;;;19.90;99.90;;;;;;5001035;28;20042;-53
2023/02/27 04:44:25;;;;;;;21.52;13.75;;;19.90;99.90;;;;;;5008097;28;20029;-53
2023/02/27 04:46:52;;;;;;;19.75;12.70;;;19.90;99.90;;;;;;5012628;28;20030;-52
2023/02/27 04:49:50;;;;;;;19.20;12.70;;;19.90;99.90;;;;;;5012489;28;20403;-51
2023/02/27 04:52:39;;;;;;;20.20;12.65;;;19.90;99.90;;;;;;5004849;28;20431;-52
2023/02/27 04:55:20;;;;;;;21.85;13.02;;;19.90;99.90;;;;;;5032447;28;20029;-53
2023/02/27 04:57:58;;;;;;;18.88;11.77;;;19.90;99.90;;;;;;5014339;28;20120;-53
2023/02/27 05:00:26;;;;;;;17.75;11.80;;;19.90;99.90;;;;;;5032982;28;20049;-53
2023/02/27 05:02:58;;;;;;;21.25;12.60;;;19.90;99.90;;;;;;5032133;28;20025;-53
2023/02/27 05:05:28;;;;;;;18.52;11.95;;;19.90;99.90;;;;;;5032119;28;20032;-53
2023/02/27 05:08:17;;;;;;;18.55;11.68;;;19.90;99.90;;;;;;5013984;28;20112;-52
2023/02/27 05:10:57;;;;;;;17.33;11.10;;;19.90;99.90;;;;;;5031884;28;20432;-54
2023/02/27 05:13:32;;;;;;;18.02;11.98;;;19.90;99.90;;;;;;5022233;28;20026;-54
2023/02/27 05:16:17;;;;;;;17.27;11.18;;;19.90;99.90;;;;;;5029886;28;20053;-54
2023/02/27 05:18:44;;;;;;;17.10;11.60;;;19.90;99.90;;;;;;5031748;28;20021;-54
2023/02/27 05:21:23;;;;;;;16.80;10.43;;;19.90;99.90;;;;;;5031870;28;20022;-54
2023/02/27 05:24:07;;;;;;;21.40;12.18;;;19.90;99.90;;;;;;5014006;28;20026;-58
2023/02/27 05:26:53;;;;;;;16.33;10.40;;;19.90;99.90;;;;;;5031486;28;20140;-53
2023/02/27 05:29:24;;;;;;;15.95;10.63;;;19.80;99.90;;;;;;5012151;28;20056;-53
2023/02/27 05:32:02;;;;;;;15.35;10.70;;;19.80;99.90;;;;;;5007551;28;20030;-54
2023/02/27 05:34:50;;;;;;;18.23;10.27;;;19.80;99.90;;;;;;5031894;28;20028;-52
2023/02/27 05:37:19;;;;;;;;;;;19.80;99.90;;;;;;5032164;28;20067;-51
2023/02/27 05:39:47;;;;;;;14.80;9.32;;;19.80;99.90;;;;;;5021776;28;20311;-52
2023/02/27 05:42:23;;;;;;;16.92;10.50;;;19.80;99.90;;;;;;5015535;28;20018;-52
2023/02/27 05:44:58;;;;;;;15.95;10.13;;;19.80;99.90;;;;;;5031552;28;20022;-52
2023/02/27 05:47:28;;;;;;;16.60;10.85;;;19.80;99.90;;;;;;5031268;28;20027;-51
2023/02/27 05:50:00;;;;;;;14.50;9.60;;;19.80;99.90;;;;;;5018577;28;20018;-53
2023/02/27 05:52:28;;;;;;;16.65;9.85;;;19.80;99.90;;;;;;5001471;28;20033;-52
2023/02/27 05:55:09;;;;;;;13.80;9.32;;;19.80;99.90;;;;;;5019145;28;20104;-52
2023/02/27 05:57:41;;;;;;;12.32;8.40;;;19.80;99.90;;;;;;5019851;28;20514;-53
2023/02/27 06:00:13;;;;;;;13.60;9.13;;;19.80;99.90;;;;;;5010462;28;20506;-53
2023/02/27 06:02:41;;;;;;;14.55;8.90;;;19.80;99.90;;;;;;5010887;28;20022;-53
2023/02/27 06:05:07;;;;;;;15.85;9.02;;;19.70;99.90;;;;;;5011933;28;20037;-53
2023/02/27 06:07:34;;;;;;;13.73;8.45;;;19.70;99.90;;;;;;5011705;28;20041;-52
2023/02/27 06:10:00;;;;;;;10.47;7.00;;;19.70;99.90;;;;;;5011709;28;20528;-52
2023/02/27 06:12:26;;;;;;;13.55;8.98;;;19.70;99.90;;;;;;5010337;28;20113;-52
2023/02/27 06:14:51;;;;;;;12.40;7.85;;;19.70;99.90;;;;;;5011986;28;20018;-53
2023/02/27 06:17:17;;;;;;;13.73;7.93;;;19.70;99.90;;;;;;5011364;28;20510;-53
2023/02/27 06:19:43;;;;;;;14.48;8.50;;;19.70;99.90;;;;;;5010186;28;20034;-51
2023/02/27 06:22:10;;;;;;;13.32;7.72;;;19.70;99.90;;;;;;4998564;28;20056;-52
2023/02/27 06:24:36;;;;;;;12.00;7.30;;;19.70;99.90;;;;;;5011534;28;20058;-53
2023/02/27 06:27:01;;;;;;;13.50;8.95;;;19.70;99.90;;;;;;5011375;28;20155;-52
2023/02/27 06:29:27;;;;;;;12.38;7.60;;;19.60;99.90;;;;;;5011440;28;20029;-52
2023/02/27 06:31:53;;;;;;;13.25;7.57;;;19.60;99.90;;;;;;5011324;28;20034;-53
2023/02/27 06:34:19;;;;;;;11.60;7.43;;;19.60;99.90;;;;;;5011394;28;20030;-53
2023/02/27 06:36:44;;;;;;;11.20;7.57;;;19.60;99.90;;;;;;5011306;28;20072;-52
2023/02/27 06:39:10;;;;;;;13.63;7.47;;;19.60;99.90;;;;;;5012396;28;20656;-53
2023/02/27 06:41:36;;;;;;;13.43;7.20;;;19.60;99.90;;;;;;5014879;28;20026;-52
2023/02/27 06:44:02;;;;;;;11.77;8.27;;;19.60;99.90;;;;;;5009291;28;20374;-53
2023/02/27 06:46:28;;;;;;;12.07;6.72;;;19.60;99.90;;;;;;5005983;28;20041;-53
2023/02/27 06:48:54;;;;;;;10.75;7.07;;;19.60;99.90;;;;;;5010861;28;20031;-53
2023/02/27 06:51:20;;;;;;;11.82;8.00;;;19.60;99.90;;;;;;4995190;28;20053;-52
2023/02/27 06:53:46;;;;;;;11.77;7.82;;;19.60;99.90;;;;;;5009652;28;20113;-53
2023/02/27 06:56:12;;;;;;;12.10;7.72;;;19.60;99.90;;;;;;5003991;28;20117;-52
2023/02/27 06:58:37;;;;;;;13.98;7.40;;;19.50;99.90;;;;;;5014429;28;20474;-53
2023/02/27 07:01:03;;;;;;;12.43;7.63;;;19.50;99.90;;;;;;5029276;28;20053;-52
2023/02/27 07:03:29;;;;;;;13.45;8.40;;;19.50;99.90;;;;;;5020667;28;20033;-52
2023/02/27 07:05:57;;;;;;;11.05;7.47;;;19.50;99.90;;;;;;5034213;28;20479;-52
2023/02/27 07:08:23;;;;;;;12.93;7.15;;;19.50;99.90;;;;;;5034008;28;20064;-52
2023/02/27 07:10:48;;;;;;;10.27;7.15;;;19.50;99.90;;;;;;5025735;28;20103;-52
2023/02/27 07:13:15;;;;;;;10.77;7.28;;;19.50;99.90;;;;;;5022245;28;20032;-52
2023/02/27 07:15:42;;;;;;;9.90;7.15;;;19.50;99.90;;;;;;5014472;28;20018;-53
2023/02/27 07:18:08;;;;;;;9.55;6.85;;;19.50;99.90;;;;;;5023278;28;20026;-55
2023/02/27 07:20:33;;;;;;;10.65;5.88;;;19.50;99.90;;;;;;5033441;28;20436;-54
2023/02/27 07:22:59;;;;;;;10.18;6.15;;;19.50;99.90;;;;;;5033545;28;20013;-56
2023/02/27 07:25:25;;;;;;;8.52;5.55;;;19.50;99.90;;;;;;5033375;28;20032;-54
2023/02/27 07:27:51;;;;;;;8.50;5.20;;;19.50;99.90;;;;;;5015471;28;20116;-54
2023/02/27 07:30:18;;;;;;;9.40;5.18;;;19.50;99.90;;;;;;5020410;28;20022;-56
2023/02/27 07:32:44;;;;;;;7.05;4.50;;;19.50;99.90;;;;;;5022756;28;20030;-54
2023/02/27 07:35:10;;;;;;;11.68;4.65;;;19.50;99.90;;;;;;5031641;28;20041;-54
2023/02/27 07:37:37;;;;;;;12.88;4.85;;;19.60;99.90;;;;;;5015277;28;20030;-53
2023/02/27 07:40:04;;;;;;;8.32;4.03;;;19.50;99.90;;;;;;5027032;28;20494;-53
2023/02/27 07:42:30;;;;;;;6.75;4.55;;;19.60;99.90;;;;;;5027235;28;20037;-52
2023/02/27 07:44:56;;;;;;;7.13;4.97;;;19.60;99.90;;;;;;5013670;28;20046;-53
2023/02/27 07:47:21;;;;;;;6.75;4.63;;;19.60;99.90;;;;;;5009583;28;20057;-52
2023/02/27 07:49:47;;;;;;;8.18;4.80;;;19.60;99.90;;;;;;5033513;28;20032;-52
2023/02/27 07:52:13;;;;;;;12.40;4.90;;;19.60;99.90;;;;;;5033474;28;20151;-53
2023/02/27 07:54:39;;;;;;;7.68;4.45;;;19.60;99.90;;;;;;5015423;28;20029;-52
2023/02/27 07:57:05;;;;;;;10.23;4.90;;;19.60;99.90;;;;;;5033271;28;20022;-52
2023/02/27 07:59:30;;;;;;;13.48;6.45;;;19.60;99.90;;;;;;5032744;28;20033;-53
2023/02/27 08:01:56;;;;;;;9.35;4.50;;;19.60;99.90;;;;;;5033231;28;20552;-55
2023/02/27 08:04:22;;;;;;;9.40;4.72;;;19.60;99.90;;;;;;5033046;28;20111;-53
2023/02/27 08:06:48;;;;;;;8.35;5.22;;;19.70;99.90;;;;;;5024529;28;20041;-53
2023/02/27 08:09:14;;;;;;;7.40;4.97;;;19.70;99.90;;;;;;5013466;28;20114;-54
2023/02/27 08:11:39;;;;;;;10.57;5.03;;;19.70;99.90;;;;;;5002598;28;20546;-55
2023/02/27 08:14:06;;;;;;;8.73;4.65;;;19.70;99.90;;;;;;5032772;28;20029;-54
2023/02/27 08:16:32;;;;;;;11.20;5.55;;;19.70;99.90;;;;;;5015092;28;20410;-54
2023/02/27 08:18:58;;;;;;;11.50;5.70;;;19.70;99.90;;;;;;5032833;28;20471;-53
2023/02/27 08:21:24;;;;;;;8.10;5.40;;;19.80;99.90;;;;;;5032733;28;20025;-54
2023/02/27 08:23:50;;;;;;;13.52;5.32;;;19.70;99.90;;;;;;5019465;28;20021;-54
2023/02/27 08:26:16;;;;;;;9.82;4.90;;;19.80;99.90;;;;;;5022611;28;20072;-53
2023/02/27 08:28:42;;;;;;;12.52;6.15;;;19.80;99.90;;;;;;5014848;28;20038;-53
2023/02/27 08:31:07;;;;;;;8.13;4.75;;;19.80;99.90;;;;;;5032574;28;20026;-51
2023/02/27 08:33:34;;;;;;;7.80;4.68;;;19.80;99.90;;;;;;5032475;28;20037;-53
2023/02/27 08:35:59;;;;;;;10.68;5.72;;;19.80;99.90;;;;;;5014880;28;20014;-54
2023/02/27 08:38:25;;;;;;;9.70;5.63;;;19.90;99.90;;;;;;5031940;28;20380;-55
2023/02/27 08:40:54;;;;;;;8.55;5.15;;;19.90;99.90;;;;;;5018155;28;20472;-55
2023/02/27 08:43:20;;;;;;;9.02;5.32;;;19.90;99.90;;;;;;5019781;28;20104;-54
2023/02/27 08:45:47;;;;;;;9.03;5.53;;;19.90;99.90;;;;;;5031752;28;20164;-53
2023/02/27 08:48:14;;;;;;;6.95;4.45;;;19.90;99.90;;;;;;5032229;28;20541;-54
2023/02/27 08:50:41;;;;;;;9.50;5.50;;;19.90;99.90;;;;;;5031906;28;20021;-53
2023/02/27 08:53:07;;;;;;;9.43;4.87;;;19.90;99.90;;;;;;5032074;28;20056;-54
2023/02/27 08:55:34;;;;;;;9.98;5.80;;;20.00;99.90;;;;;;5015525;28;20252;-54
2023/02/27 08:57:59;;;;;;;9.95;5.90;;;20.00;99.90;;;;;;5022473;28;20451;-54
2023/02/27 09:00:25;;;;;;;8.63;5.35;;;19.90;99.90;;;;;;5016813;28;20067;-54
2023/02/27 09:02:52;;;;;;;11.73;6.07;;;20.00;99.90;;;;;;5020227;28;20021;-55
2023/02/27 09:05:18;;;;;;;10.15;6.10;;;20.00;99.90;;;;;;5017257;28;20080;-54
2023/02/27 09:07:44;;;;;;;9.88;6.53;;;20.00;99.90;;;;;;5031980;28;20439;-55
2023/02/27 09:10:11;;;;;;;12.05;6.28;;;20.00;99.90;;;;;;5031630;28;20028;-54
2023/02/27 09:12:36;;;;;;;12.02;7.40;;;20.00;99.90;;;;;;5032077;28;20022;-54
2023/02/27 09:15:04;;;;;;;13.02;7.00;;;20.00;99.90;;;;;;5014189;28;20021;-54
2023/02/27 09:17:30;;;;;;;12.05;6.78;;;20.00;99.90;;;;;;5031978;28;20024;-55
2023/02/27 09:19:56;;;;;;;10.07;5.95;;;20.10;99.90;;;;;;5032001;28;20014;-55
2023/02/27 09:22:23;;;;;;;11.30;6.60;;;20.10;99.90;;;;;;5010231;28;20064;-54
2023/02/27 09:24:49;;;;;;;10.90;6.80;;;20.10;99.90;;;;;;5023114;28;20472;-55
2023/02/27 09:27:15;;;;;;;12.15;7.00;;;20.10;99.90;;;;;;5018531;28;20029;-55
2023/02/27 09:29:41;;;;;;;12.48;7.05;;;20.20;99.90;;;;;;5031610;28;20113;-55
2023/02/27 09:32:07;;;;;;;10.15;6.32;;;20.20;99.90;;;;;;5014073;28;20104;-55
2023/02/27 09:34:34;;;;;;;11.10;6.15;;;20.20;99.90;;;;;;5031549;28;20021;-55
2023/02/27 09:37:00;;;;;;;10.60;7.00;;;20.20;99.90;;;;;;5031702;28;20444;-55
2023/02/27 09:39:27;;;;;;;11.20;7.13;;;20.20;99.90;;;;;;5025986;28;20498;-55
2023/02/27 09:42:40;;;;;;;13.23;6.47;;;20.20;99.90;;;;;;5024477;28;20491;-54
2023/02/27 09:45:22;;;;;;;10.65;6.78;;;20.20;99.90;;;;;;5020564;28;20065;-55
2023/02/27 09:47:58;;;;;;;9.23;5.97;;;20.20;99.90;;;;;;5012555;28;20033;-55
2023/02/27 09:50:32;;;;;;;9.50;6.38;;;20.30;99.90;;;;;;5026385;28;20021;-56
2023/02/27 09:52:58;;;;;;;9.63;6.45;;;20.30;99.90;;;;;;5024392;28;20030;-55
2023/02/27 09:55:32;;;;;;;11.27;6.20;;;20.30;99.90;;;;;;5025238;28;20022;-55
2023/02/27 09:58:30;;;;;;;10.50;6.68;;;20.40;99.90;;;;;;5031519;28;20467;-55
2023/02/27 10:01:03;;;;;;;11.32;6.75;;;20.40;99.90;;;;;;5009229;28;20434;-56
2023/02/27 10:03:50;;;;;;;7.80;5.47;;;20.50;99.90;;;;;;5006763;28;20120;-55
2023/02/27 10:06:22;;;;;;;9.50;5.82;;;20.50;99.90;;;;;;5018322;28;20021;-55
2023/02/27 10:09:11;;;;;;;8.65;5.30;;;20.50;99.90;;;;;;5018221;28;20400;-54
2023/02/27 10:11:55;;;;;;;9.95;5.22;;;20.50;99.90;;;;;;5031399;28;20017;-56
2023/02/27 10:14:30;;;;;;;8.50;5.70;;;20.60;99.90;;;;;;4996934;28;20025;-55
2023/02/27 10:16:57;;;;;;;8.57;5.40;;;20.70;99.90;;;;;;5028142;28;20022;-55
2023/02/27 10:19:30;;;;;;;10.00;5.55;;;20.70;99.90;;;;;;5028089;28;20364;-55
2023/02/27 10:21:58;;;;;;;9.27;5.53;;;20.70;99.90;;;;;;5016961;28;20022;-54
2023/02/27 10:24:30;;;;;;;10.02;6.00;;;20.70;99.90;;;;;;5034933;28;20383;-55
2023/02/27 10:26:59;;;;;;;8.05;5.75;;;20.80;99.90;;;;;;5034888;28;20022;-55
2023/02/27 10:29:35;;;;;;;8.73;5.57;;;20.80;99.90;;;;;;5026528;28;20026;-55
2023/02/27 10:32:14;;;;;;;8.95;5.85;;;20.90;99.90;;;;;;5031483;28;20479;-55
2023/02/27 10:34:42;;;;;;;9.80;5.00;;;20.90;99.90;;;;;;5025039;28;20033;-55
2023/02/27 10:37:13;;;;;;;9.93;5.47;;;21.00;99.90;;;;;;5018568;28;20071;-55
2023/02/27 10:39:49;;;;;;;9.18;5.07;;;21.00;99.90;;;;;;5034955;28;20028;-55
2023/02/27 10:42:17;;;;;;;8.32;5.30;;;21.00;99.90;;;;;;5017244;28;20527;-55
2023/02/27 10:44:43;;;;;;;11.63;5.50;;;21.00;99.90;;;;;;5014883;28;20030;-55
2023/02/27 10:47:24;;;;;;;7.95;4.97;;;21.10;99.90;;;;;;5009966;28;20042;-55
2023/02/27 10:49:52;;;;;;;13.13;7.00;;;21.10;99.90;;;;;;5015114;28;20026;-55
2023/02/27 10:52:18;;;;;;;9.20;5.00;;;21.10;99.90;;;;;;5018174;28;20018;-55
2023/02/27 10:54:45;;;;;;;12.18;5.60;;;21.20;99.90;;;;;;5024014;28;20053;-55
2023/02/27 10:57:25;;;;;;;10.07;5.20;;;21.20;99.90;;;;;;5014467;28;20029;-55
2023/02/27 10:59:58;;;;;;;9.45;6.22;;;21.20;99.90;;;;;;5007700;28;20399;-55
2023/02/27 11:02:37;;;;;;;10.18;5.28;;;21.30;99.90;;;;;;5034594;28;20433;-54
2023/02/27 11:05:15;;;;;;;8.30;5.88;;;21.30;99.90;;;;;;5020389;28;20026;-52
2023/02/27 11:07:41;;;;;;;;;;;21.30;99.90;;;;;;5034403;28;20091;-55
2023/02/27 11:10:12;;;;;;;9.52;5.63;;;21.40;99.90;;;;;;5020475;28;20012;-55
2023/02/27 11:12:40;;;;;;;10.05;6.18;;;21.40;99.90;;;;;;5034171;28;20357;-55
2023/02/27 11:15:15;;;;;;;10.30;6.22;;;21.50;99.90;;;;;;5034047;28;20024;-55
2023/02/27 11:17:42;;;;;;;13.23;6.43;;;21.50;99.90;;;;;;5019683;28;20029;-54
2023/02/27 11:20:30;;;;;;;11.20;6.28;;;21.50;99.90;;;;;;5016244;28;20021;-55
2023/02/27 11:23:13;;;;;;;12.02;5.90;;;21.50;99.90;;;;;;5022528;28;20479;-54
2023/02/27 11:25:39;;;;;;;10.25;6.57;;;21.60;99.90;;;;;;5030699;28;20025;-55
2023/02/27 11:28:19;;;;;;;9.52;5.97;;;21.60;99.90;;;;;;5023227;28;20462;-56
2023/02/27 11:31:02;;;;;;;14.52;6.80;;;21.70;99.90;;;;;;5033691;28;20043;-55
2023/02/27 11:33:32;;;;;;;11.18;6.90;;;21.60;99.90;;;;;;5033782;28;20021;-56
2023/02/27 11:35:58;;;;;;;12.68;6.93;;;21.70;99.90;;;;;;5015692;28;20104;-55
2023/02/27 11:38:28;;;;;;;12.05;6.60;;;21.70;99.90;;;;;;5022950;28;20128;-55
2023/02/27 11:41:03;;;;;;;12.02;7.65;;;21.80;99.90;;;;;;5032205;28;20021;-54
2023/02/27 11:43:36;;;;;;;11.90;7.15;;;21.80;99.90;;;;;;5033448;28;20021;-55
2023/02/27 11:46:09;;;;;;;15.27;8.43;;;21.80;99.90;;;;;;5027420;28;20026;-54
2023/02/27 11:48:58;;;;;;;13.18;7.82;;;21.80;99.90;;;;;;5026875;28;20621;-55
2023/02/27 11:51:57;;;;;;;14.32;8.07;;;21.90;99.90;;;;;;5021550;28;20030;-54
2023/02/27 11:54:49;;;;;;;13.57;7.78;;;21.90;99.90;;;;;;5013526;28;20029;-54
2023/02/27 11:57:18;;;;;;;11.90;7.30;;;21.90;99.90;;;;;;5010269;28;20076;-55
2023/02/27 11:59:50;;;;;;;11.57;7.72;;;22.00;99.90;;;;;;5023882;28;20048;-55
2023/02/27 12:02:19;;;;;;;13.40;8.63;;;22.00;99.90;;;;;;5017060;28;20139;-54
2023/02/27 12:05:11;;;;;;;13.05;8.45;;;22.00;99.90;;;;;;5032999;28;20021;-54
2023/02/27 12:07:50;;;;;;;13.40;9.45;;;22.10;99.90;;;;;;5016964;28;20112;-54
2023/02/27 12:10:29;;;;;;;13.77;8.65;;;22.10;99.90;;;;;;5031736;28;20037;-54
2023/02/27 12:13:09;;;;;;;15.27;8.80;;;22.10;99.90;;;;;;5021514;28;20070;-52
2023/02/27 12:15:49;;;;;;;14.90;9.23;;;22.20;99.90;;;;;;5032864;28;20032;-53
2023/02/27 12:18:34;;;;;;;12.07;8.52;;;22.20;99.90;;;;;;5033253;28;20039;-54
2023/02/27 12:21:06;;;;;;;11.55;8.05;;;22.20;99.90;;;;;;5014353;28;20068;-54
2023/02/27 12:23:59;;;;;;;12.88;8.38;;;22.20;99.90;;;;;;5008302;28;20490;-54
2023/02/27 12:26:40;;;;;;;13.93;9.25;;;22.30;99.90;;;;;;5023232;28;20072;-54
2023/02/27 12:29:44;;;;;;;14.10;9.00;;;22.30;99.90;;;;;;5000451;28;20030;-53
2023/02/27 12:32:48;;;;;;;13.90;9.02;;;22.30;99.90;;;;;;5032657;28;20022;-54
2023/02/27 12:35:32;;;;;;;14.80;8.52;;;22.40;99.90;;;;;;5002019;28;20395;-54
2023/02/27 12:37:59;;;;;;;14.23;9.50;;;22.40;99.90;;;;;;5023342;28;20032;-52
2023/02/27 12:40:30;;;;;;;13.35;9.60;;;22.40;99.90;;;;;;4996757;28;20384;-54
2023/02/27 12:43:54;;;;;;;13.02;9.70;;;22.40;99.90;;;;;;5032459;28;20067;-55
2023/02/27 12:46:26;;;;;;;14.43;9.88;;;22.40;99.90;;;;;;4952642;28;20382;-54
2023/02/27 12:49:06;;;;;;;14.63;8.50;;;22.50;99.90;;;;;;5015817;28;20124;-54
2023/02/27 12:51:50;;;;;;;15.25;9.43;;;22.50;99.90;;;;;;5023052;28;20101;-52
2023/02/27 12:54:25;;;;;;;14.20;10.18;;;22.50;99.90;;;;;;5008478;28;20447;-54
2023/02/27 12:57:09;;;;;;;14.13;9.50;;;22.60;99.90;;;;;;5026794;28;20396;-54
2023/02/27 12:59:59;;;;;;;13.85;9.13;;;22.60;99.90;;;;;;5020740;28;20042;-54
2023/02/27 13:02:50;;;;;;;13.05;9.45;;;22.60;99.90;;;;;;5013973;28;20061;-53
2023/02/27 13:05:34;;;;;;;13.30;9.20;;;22.60;99.90;;;;;;5019152;28;20041;-54
2023/02/27 13:08:19;;;;;;;15.95;9.07;;;22.60;99.90;;;;;;5032090;28;20076;-54